KFMH/FMH METAR and TAF weather

Enter ICAO airport designator
Station Type Date Time Source
KFMH METAR 2022/10/01 08:55 UTC NOAA

KFMH 010855Z 05004KT 10SM FEW028 SCT090 14/11 A3014


Station Type Date Time Source
KFMH Decoded METAR 2022/10/01 08:55 UTC NOAA

Otis Air National Guard Base, MA, United States (KFMH) 41-39N 070-31W
Oct 01, 2022 - 04:55 AM EDT / 2022.10.01 0855 UTC
Wind: from the NE (050 degrees) at 5 MPH (4 KT):0
Visibility: 10 mile(s):0
Sky conditions: partly cloudy
Temperature: 57 F (14 C)
Dew Point: 51 F (11 C)
Relative Humidity: 82%
Pressure (altimeter): 30.14 in. Hg (1020 hPa)
ob: KFMH 010855Z 05004KT 10SM FEW028 SCT090 14/11 A3014
cycle: 9

Station Type Date Time Source
KFMH TAF 2022/10/01 06:30 UTC NOAA

TAF KFMH 010529Z 0106/0206 04003KT P6SM BKN200
FM011200 05007KT 6SM -RA OVC050
FM011600 04009KT 3SM -RA BR OVC010
FM011700 05010KT 3SM -RA BR OVC008
FM020100 05011G18KT 2SM -RA BR OVC003

Example: see airport list